Tongo Airport

Jump to: basic info | weather | comments

Related pages: nearby airports | nearby navaids | notams | map

Basic information (top)

Codes: GFTO
Location: lon 8.217000, lat -11.067000, elev 750 ft / 229 m msl
Status: small_airport

Weather (top)

Current conditions for Roberts International Airport 126nm (234km) SSE (rec'd 2014/04/24 03:00Z):

GLRB 240300Z 00000KT 9999 BKN014 FEW024 CB 25/24 Q1010 RMK CB-W

Airport forecast for Roberts International Airport 126nm (234km) SSE (rec'd 2014/04/23 00:54Z):

TAF TAF GLRB 232200Z 2400/2506 17005KT 9999 SCT014 
      BECMG 2401/2403 VRB03KT 9000 
     FM240600 04005KT 9999 SCT013 
      TEMPO 2411/2415 24012KT 9999

Latest comments (top)

No comments yet for Tongo Airport

More... (top)

See also NOTAMs and nearby airports and navaids, or visit the Tongo Airport page at the main OurAirports website..